createdAt,value
2019-03-09T00:03:18.422Z,8.50
2019-03-09T00:08:23.920Z,8.30
2019-03-09T00:13:29.404Z,8.40
2019-03-09T00:18:34.407Z,8.30
2019-03-09T00:24:09.229Z,8.30
2019-03-09T00:29:35.430Z,8.40
2019-03-09T00:34:40.607Z,8.30
2019-03-09T00:39:45.753Z,8.40
2019-03-09T00:44:50.697Z,8.40
2019-03-09T00:49:55.532Z,8.40
2019-03-09T00:55:00.588Z,8.40
2019-03-09T01:00:10.305Z,8.30
2019-03-09T01:05:15.715Z,8.30
2019-03-09T01:10:20.569Z,8.30
2019-03-09T01:15:25.429Z,8.40
2019-03-09T01:20:30.455Z,8.30
2019-03-09T01:25:35.431Z,8.30
2019-03-09T01:30:40.547Z,8.40
2019-03-09T01:35:46.872Z,8.40
2019-03-09T01:40:50.243Z,8.40
2019-03-09T01:45:53.475Z,8.40
2019-03-09T01:50:56.803Z,8.40
2019-03-09T01:56:00.104Z,8.40
2019-03-09T02:01:03.570Z,8.40
2019-03-09T02:06:07.904Z,8.50
2019-03-09T02:11:12.748Z,8.50
2019-03-09T02:16:18.728Z,8.50
2019-03-09T02:21:22.885Z,8.50
2019-03-09T02:26:26.957Z,8.50
2019-03-09T02:31:31.121Z,8.50
2019-03-09T02:36:35.425Z,8.50
2019-03-09T02:41:39.356Z,8.50
2019-03-09T02:46:44.052Z,8.50
2019-03-09T02:51:47.888Z,8.50
2019-03-09T02:56:52.032Z,8.60
2019-03-09T03:02:08.679Z,8.60
2019-03-09T03:07:12.741Z,8.50
2019-03-09T03:12:17.809Z,8.50
2019-03-09T03:17:22.744Z,8.70
2019-03-09T03:22:27.666Z,8.70
2019-03-09T03:27:32.496Z,8.80
2019-03-09T03:32:37.565Z,8.90
2019-03-09T03:37:42.469Z,9.00
2019-03-09T03:42:47.527Z,9.00
2019-03-09T03:47:52.450Z,9.00
2019-03-09T03:52:57.375Z,9.00
2019-03-09T03:58:03.685Z,9.10
2019-03-09T04:03:08.606Z,9.10
2019-03-09T04:08:13.259Z,9.10
2019-03-09T04:13:18.254Z,9.10
2019-03-09T04:18:23.215Z,9.00
2019-03-09T04:23:27.982Z,8.90
2019-03-09T04:28:33.018Z,8.90
2019-03-09T04:33:37.830Z,8.80
2019-03-09T04:38:42.781Z,8.80
2019-03-09T04:43:47.791Z,8.80
2019-03-09T04:48:52.897Z,8.80
2019-03-09T04:53:57.757Z,8.80
2019-03-09T04:59:01.714Z,8.60
2019-03-09T05:04:42.281Z,8.60
2019-03-09T05:10:15.873Z,8.60
2019-03-09T05:15:20.733Z,8.60
2019-03-09T05:20:25.774Z,8.60
2019-03-09T05:25:30.731Z,8.60
2019-03-09T05:30:40.309Z,8.60
2019-03-09T05:35:45.924Z,8.60
2019-03-09T05:40:50.771Z,8.60
2019-03-09T05:45:55.784Z,8.60
2019-03-09T05:51:00.842Z,8.50
2019-03-09T05:56:05.497Z,8.50
2019-03-09T06:01:09.717Z,8.50
2019-03-09T06:06:15.745Z,8.50
2019-03-09T06:11:19.937Z,8.50
2019-03-09T06:16:24.171Z,8.60
2019-03-09T06:21:28.841Z,8.70
2019-03-09T06:26:32.705Z,8.60
2019-03-09T06:31:37.319Z,8.60
2019-03-09T06:37:06.303Z,8.60
2019-03-09T06:42:47.019Z,8.70
2019-03-09T06:47:52.455Z,8.60
2019-03-09T06:52:57.540Z,8.70
2019-03-09T06:58:02.807Z,8.60
2019-03-09T07:03:09.286Z,8.70
2019-03-09T07:08:14.345Z,8.70
2019-03-09T07:13:19.527Z,8.80
2019-03-09T07:18:33.835Z,8.80
2019-03-09T07:23:39.060Z,8.80
2019-03-09T07:28:44.182Z,8.80
2019-03-09T07:34:11.551Z,8.90
2019-03-09T07:39:16.781Z,8.90
2019-03-09T07:44:22.278Z,9.00
2019-03-09T07:49:28.072Z,9.00
2019-03-09T07:54:33.975Z,9.10
2019-03-09T07:59:39.205Z,9.20
2019-03-09T08:04:45.788Z,9.30
2019-03-09T08:09:51.202Z,9.40
2019-03-09T08:14:56.907Z,9.60
2019-03-09T08:20:01.954Z,9.80
2019-03-09T08:25:09.279Z,9.90
2019-03-09T08:30:24.187Z,10.00
2019-03-09T08:35:29.437Z,10.10
2019-03-09T08:40:34.779Z,10.30
2019-03-09T08:45:40.346Z,10.30
2019-03-09T08:50:45.649Z,10.20
2019-03-09T08:55:50.720Z,10.20
2019-03-09T09:00:56.620Z,10.20
2019-03-09T09:06:02.723Z,10.10
2019-03-09T09:11:08.004Z,10.10
2019-03-09T09:16:13.865Z,10.00
2019-03-09T09:21:18.269Z,10.10
2019-03-09T09:26:23.192Z,10.10
2019-03-09T09:31:27.350Z,10.10
2019-03-09T09:36:32.247Z,10.10
2019-03-09T09:41:37.009Z,10.20
2019-03-09T09:46:41.453Z,10.30
2019-03-09T09:51:45.675Z,10.30
2019-03-09T09:56:50.695Z,10.40
2019-03-09T10:01:54.628Z,10.40
2019-03-09T10:06:59.590Z,10.50
2019-03-09T10:12:06.026Z,10.50
2019-03-09T10:17:11.386Z,10.60
2019-03-09T10:22:16.501Z,10.70
2019-03-09T10:27:21.511Z,10.70
2019-03-09T10:32:27.021Z,10.90
2019-03-09T10:37:32.025Z,11.00
2019-03-09T10:42:37.502Z,11.10
2019-03-09T10:47:43.613Z,11.20
2019-03-09T10:52:48.957Z,11.30
2019-03-09T10:57:55.245Z,11.40
2019-03-09T11:03:00.806Z,11.40
2019-03-09T11:08:06.397Z,11.50
2019-03-09T11:13:11.931Z,11.50
2019-03-09T11:18:17.208Z,11.50
2019-03-09T11:23:22.743Z,11.50
2019-03-09T11:28:27.928Z,11.50
2019-03-09T11:33:33.266Z,11.50
2019-03-09T11:38:39.004Z,11.60
2019-03-09T11:43:44.033Z,11.60
2019-03-09T11:48:49.042Z,11.50
2019-03-09T11:53:54.271Z,11.50
2019-03-09T11:59:00.562Z,11.50
2019-03-09T12:04:06.060Z,11.50
2019-03-09T12:09:11.633Z,11.50
2019-03-09T12:14:17.792Z,11.40
2019-03-09T12:19:23.166Z,11.40
2019-03-09T12:24:28.404Z,11.40
2019-03-09T12:29:33.766Z,11.20
2019-03-09T12:34:38.705Z,11.10
2019-03-09T12:39:43.467Z,11.20
2019-03-09T12:44:48.568Z,11.10
2019-03-09T12:49:53.715Z,11.20
2019-03-09T12:54:58.663Z,11.20
2019-03-09T13:00:05.799Z,11.20
2019-03-09T13:05:11.050Z,11.30
2019-03-09T13:10:16.224Z,11.30
2019-03-09T13:15:22.795Z,11.40
2019-03-09T13:20:28.579Z,11.50
2019-03-09T13:25:33.978Z,11.60
2019-03-09T13:30:40.078Z,11.40
2019-03-09T13:35:45.582Z,11.50
2019-03-09T13:40:50.853Z,11.50
2019-03-09T13:45:57.352Z,11.50
2019-03-09T13:51:02.779Z,11.50
2019-03-09T13:56:07.904Z,11.60
2019-03-09T14:01:12.718Z,11.50
2019-03-09T14:06:17.080Z,11.30
2019-03-09T14:11:21.390Z,11.30
2019-03-09T14:16:25.784Z,11.20
2019-03-09T14:21:30.184Z,11.30
2019-03-09T14:26:34.506Z,11.30
2019-03-09T14:31:39.222Z,11.20
2019-03-09T14:36:43.460Z,11.40
2019-03-09T14:41:48.115Z,11.50
2019-03-09T14:46:53.739Z,11.60
2019-03-09T14:51:58.575Z,11.50
2019-03-09T14:57:04.422Z,11.60
2019-03-09T15:02:09.286Z,11.50
2019-03-09T15:07:14.705Z,11.60
2019-03-09T15:12:19.984Z,11.60
2019-03-09T15:17:25.945Z,11.60
2019-03-09T15:22:31.074Z,11.60
2019-03-09T15:27:36.479Z,11.70
2019-03-09T15:32:41.900Z,11.80
2019-03-09T15:37:47.279Z,11.80
2019-03-09T15:42:52.189Z,11.80
2019-03-09T15:47:56.965Z,12.00
2019-03-09T15:53:00.330Z,12.10
2019-03-09T15:58:08.096Z,12.20
2019-03-09T16:03:13.376Z,12.20
2019-03-09T16:08:18.951Z,12.20
2019-03-09T16:13:24.468Z,12.30
2019-03-09T16:18:30.003Z,12.30
2019-03-09T16:23:35.262Z,12.30
2019-03-09T16:28:40.379Z,12.20
2019-03-09T16:33:45.427Z,12.20
2019-03-09T16:38:51.061Z,12.10
2019-03-09T16:43:57.064Z,12.10
2019-03-09T16:49:03.297Z,12.00
2019-03-09T16:54:08.503Z,12.00
2019-03-09T16:59:14.018Z,12.00
2019-03-09T17:04:19.523Z,11.90
2019-03-09T17:09:24.876Z,11.90
2019-03-09T17:14:30.036Z,11.90
2019-03-09T17:19:35.328Z,11.80
2019-03-09T17:24:38.807Z,11.80
2019-03-09T17:29:42.347Z,12.10
2019-03-09T17:34:47.328Z,12.10
2019-03-09T17:39:53.255Z,12.10
2019-03-09T17:44:58.686Z,12.00
2019-03-09T17:50:04.342Z,11.90
2019-03-09T17:55:09.989Z,11.80
2019-03-09T18:00:20.490Z,11.70
2019-03-09T18:05:25.956Z,11.60
2019-03-09T18:10:34.925Z,11.50
2019-03-09T18:15:40.408Z,11.40
2019-03-09T18:20:45.690Z,11.50
2019-03-09T18:25:52.311Z,11.40
2019-03-09T18:30:58.050Z,11.50
2019-03-09T18:36:03.004Z,11.50
2019-03-09T18:41:09.153Z,11.30
2019-03-09T18:46:14.610Z,11.30
2019-03-09T18:51:20.011Z,11.30
2019-03-09T18:56:25.214Z,11.30
2019-03-09T19:01:28.581Z,11.50
2019-03-09T19:06:33.529Z,11.50
2019-03-09T19:11:39.486Z,11.50
2019-03-09T19:16:44.941Z,11.50
2019-03-09T19:21:49.521Z,11.50
2019-03-09T19:26:54.890Z,11.50
2019-03-09T19:31:58.331Z,11.50
2019-03-09T19:37:02.678Z,11.40
2019-03-09T19:42:07.149Z,11.40
2019-03-09T19:47:10.667Z,11.40
2019-03-09T19:52:15.064Z,11.40
2019-03-09T19:57:19.500Z,11.50
2019-03-09T20:02:23.573Z,11.50
2019-03-09T20:07:26.938Z,11.60
2019-03-09T20:12:32.389Z,11.50
2019-03-09T20:17:37.284Z,11.50
